Карточка аэропорта USTR

Внимание!
Информация на этой странице в стадии наполнения.
Если вы не увидели какой-то информации, или заметили неточность - пожалуйста сообщите нам!
Спасибо!
Команда RU-STAFF
Название аэропортаРощино
Название аэропорта (англ.)Roshschino
Превышение378 ft. (115.2 m.)
Координаты57°10.098', 65°19.002'
Высота перехода700m
Эшелон переходаFL040
Коды ответчика5101-5137
Зона ОрВДТюмень РПИ (USTV)
Данные METARUSTR 272030Z 24005MPS 9000 -SHSN OVC029CB M05/M06 Q1013 R21/390043 R30/390043 TEMPO 2100 -SHSN BKN016CB
Проноз погоды (TAF)USTR 271933Z 2721/2821 25005G12MPS 2100 -SHSN BLSN BKN007 BKN016CB TEMPO 2721/2803 1000 SHSN BLSN VV004 FM280300 27006G14MPS 9999 DRSN FEW007 BKN016CB TEMPO 2803/2818 -SHSN
NOTAMshow/hide NOTAM
AWOS   TABLE

Информация о ВПП

ВПП Длина ВПП (м.) Покрытие Курс ВПП Частота ILS
033003Асфальтобетон34108.3
122704Асфальтобетон121 
213003Асфальтобетон214110.7
302704Асфальтобетон301 

Диспетчерские позиции

Позывной Наименование органа УВД Частота
USTR_GNDТюмень-Руление119.000
USTR_R_APPТюмень-Круг126.100
USTR_TWRТюмень-Старт118.200



Спутниковое изображение